Time;durP1;ratioP1;P1;durP2;ratioP2;P2;SDS_P1;SDS_P2;PMS_P1;PMS_P2;Temp;Humidity;BMP_temperature;BMP_pressure;BME280_temperature;BME280_humidity;BME280_pressure;Samples;Min_cycle;Max_cycle;Signal;HPM_P1;HPM_P2
2022/03/15 00:00:23;;;;;;;48.53;20.63;;;;;;;0.09;51.56;95570.28;5024858;28;20029;-79
2022/03/15 00:02:49;;;;;;;50.15;20.88;;;;;;;0.03;51.10;95568.47;5042442;28;20258;-80
2022/03/15 00:05:18;;;;;;;45.55;17.83;;;;;;;-0.01;51.72;95564.66;5042419;28;20029;-80
2022/03/15 00:07:44;;;;;;;51.22;18.88;;;;;;;-0.05;51.75;95566.06;5024660;28;20316;-80
2022/03/15 00:10:12;;;;;;;59.85;19.58;;;;;;;-0.09;52.35;95572.72;5042387;28;20229;-80
2022/03/15 00:12:47;;;;;;;71.05;22.00;;;;;;;-0.16;52.56;95574.53;5042316;28;20228;-80
2022/03/15 00:15:15;;;;;;;57.05;22.40;;;;;;;-0.19;52.53;95567.91;5042439;28;20105;-80
2022/03/15 00:17:47;;;;;;;51.22;19.83;;;;;;;-0.21;51.77;95569.91;5042077;28;20219;-80
2022/03/15 00:20:14;;;;;;;43.50;17.88;;;;;;;-0.25;51.91;95574.75;5042406;28;20231;-80
2022/03/15 00:22:41;;;;;;;50.47;19.00;;;;;;;-0.23;52.03;95567.50;5042283;28;20120;-80
2022/03/15 00:25:09;;;;;;;61.20;18.83;;;;;;;-0.26;51.80;95567.91;5042410;28;20028;-78
2022/03/15 00:27:36;;;;;;;56.22;18.33;;;;;;;-0.30;52.52;95565.91;5042260;28;20024;-79
2022/03/15 00:30:03;;;;;;;50.10;17.70;;;;;;;-0.35;52.59;95568.31;5024635;28;20022;-79
2022/03/15 00:32:28;;;;;;;57.00;19.05;;;;;;;-0.34;52.73;95554.22;5044898;28;20022;-79
2022/03/15 00:34:54;;;;;;;43.65;16.23;;;;;;;-0.37;52.38;95563.28;5046011;28;20047;-79
2022/03/15 00:37:22;;;;;;;49.17;15.82;;;;;;;-0.37;52.38;95560.66;5046103;28;20021;-80
2022/03/15 00:39:47;;;;;;;49.78;17.08;;;;;;;-0.38;52.53;95560.88;5045958;28;20024;-79
2022/03/15 00:42:13;;;;;;;54.75;19.67;;;;;;;-0.40;52.51;95555.84;5046036;28;20014;-79
2022/03/15 00:44:39;;;;;;;53.38;20.95;;;;;;;-0.49;52.63;95562.28;5046112;28;20017;-80
2022/03/15 00:47:05;;;;;;;66.93;21.48;;;;;;;-0.53;52.96;95558.44;5046143;28;20024;-80
2022/03/15 00:49:31;;;;;;;72.00;24.27;;;;;;;-0.53;53.11;95550.59;5046030;28;20258;-79
2022/03/15 00:51:57;;;;;;;72.53;23.98;;;;;;;-0.57;53.13;95558.06;5045948;28;20033;-81
2022/03/15 00:54:22;;;;;;;67.32;22.98;;;;;;;-0.57;53.67;95555.44;5045889;28;20107;-82
2022/03/15 00:56:48;;;;;;;51.53;18.98;;;;;;;-0.72;53.69;95539.91;5045526;28;20032;-78
2022/03/15 00:59:15;;;;;;;53.53;18.38;;;;;;;-0.74;53.96;95539.31;5045683;28;20021;-78
2022/03/15 01:01:43;;;;;;;65.15;21.77;;;;;;;-0.76;53.82;95530.84;5045559;28;20017;-78
2022/03/15 01:04:09;;;;;;;36.78;15.55;;;;;;;-0.74;53.97;95528.03;5045796;28;20021;-78
2022/03/15 01:06:38;;;;;;;44.92;15.80;;;;;;;-0.79;53.88;95523.41;5045677;28;20378;-78
2022/03/15 01:09:04;;;;;;;34.88;13.88;;;;;;;-0.77;53.71;95523.19;5045695;28;20041;-79
2022/03/15 01:11:30;;;;;;;36.53;16.15;;;;;;;-0.81;53.63;95517.56;5027729;28;20030;-78
2022/03/15 01:13:56;;;;;;;35.53;14.73;;;;;;;-0.81;53.93;95525.41;5045340;28;20025;-78
2022/03/15 01:16:21;;;;;;;35.30;13.27;;;;;;;-0.79;53.86;95522.56;5045410;28;20017;-79
2022/03/15 01:18:47;;;;;;;44.83;16.02;;;;;;;-0.82;54.24;95531.66;5045466;28;20026;-80
2022/03/15 01:21:13;;;;;;;51.53;19.30;;;;;;;-0.85;54.50;95527.63;5045230;28;20088;-84
2022/03/15 01:23:39;;;;;;;43.53;16.80;;;;;;;-0.84;53.93;95528.41;5045266;28;20021;-84
2022/03/15 01:26:05;;;;;;;41.03;14.52;;;;;;;-0.84;54.01;95526.59;5045260;28;20328;-84
2022/03/15 01:28:30;;;;;;;32.22;13.50;;;;;;;-0.84;53.75;95525.81;5045246;28;20330;-85
2022/03/15 01:30:56;;;;;;;33.85;14.43;;;;;;;-0.89;53.99;95533.47;5044923;28;20071;-84
2022/03/15 01:33:21;;;;;;;35.50;12.88;;;;;;;-0.92;53.92;95531.22;5044953;28;20405;-82
2022/03/15 01:35:47;;;;;;;30.85;13.32;;;;;;;-0.92;53.92;95528.63;5027393;28;20099;-83
2022/03/15 01:38:12;;;;;;;39.92;15.40;;;;;;;-0.92;53.94;95536.47;5044998;28;20029;-83
2022/03/15 01:40:38;;;;;;;28.58;12.60;;;;;;;-0.96;54.12;95530.03;5045207;28;20311;-82
2022/03/15 01:43:03;;;;;;;33.83;12.52;;;;;;;-0.98;53.76;95539.88;5044800;28;20028;-83
2022/03/15 01:45:37;;;;;;;24.33;11.10;;;;;;;-0.99;53.75;95538.28;5044793;28;20319;-82
2022/03/15 01:48:04;;;;;;;31.67;11.60;;;;;;;-0.97;53.46;95539.69;5027166;28;20204;-82
2022/03/15 01:50:30;;;;;;;24.60;11.93;;;;;;;-1.03;53.52;95536.06;5044984;28;20029;-82
2022/03/15 01:52:59;;;;;;;23.25;10.38;;;;;;;-1.02;53.60;95535.06;5044756;28;20215;-82
2022/03/15 01:55:36;;;;;;;29.48;11.65;;;;;;;-0.97;53.32;95544.94;5044673;28;20072;-82
2022/03/15 01:58:02;;;;;;;32.25;12.32;;;;;;;-0.98;53.99;95550.34;5044446;28;20045;-82
2022/03/15 02:00:30;;;;;;;25.98;11.27;;;;;;;-0.99;54.00;95554.00;5044709;28;20037;-82
2022/03/15 02:02:55;;;;;;;28.38;10.63;;;;;;;-0.97;53.32;95559.84;5044585;28;20032;-82
2022/03/15 02:05:21;;;;;;;26.52;12.73;;;;;;;-0.95;52.87;95548.16;5044598;28;20025;-82
2022/03/15 02:07:46;;;;;;;31.08;11.43;;;;;;;-0.97;53.07;95544.13;5044372;28;20026;-82
2022/03/15 02:10:12;;;;;;;28.08;12.18;;;;;;;-0.97;53.19;95537.06;5044388;28;20036;-82
2022/03/15 02:12:38;;;;;;;31.83;12.25;;;;;;;-0.91;53.40;95543.34;5044494;28;20021;-82
2022/03/15 02:15:06;;;;;;;37.38;13.45;;;;;;;-0.92;53.47;95541.69;5044496;28;20028;-83
2022/03/15 02:17:36;;;;;;;30.95;13.00;;;;;;;-0.93;53.69;95545.34;5044111;28;20304;-81
2022/03/15 02:20:08;;;;;;;34.03;13.27;;;;;;;-0.99;53.40;95546.94;5044108;28;20029;-82
2022/03/15 02:22:34;;;;;;;45.60;14.18;;;;;;;-0.99;53.96;95530.44;5044501;28;20029;-81
2022/03/15 02:25:00;;;;;;;41.08;14.52;;;;;;;-1.06;53.79;95528.63;5044243;28;20060;-84
2022/03/15 02:27:25;;;;;;;40.88;15.13;;;;;;;-1.06;54.19;95531.22;5044146;28;20037;-82
2022/03/15 02:29:51;;;;;;;40.53;16.45;;;;;;;-1.04;54.15;95517.94;5044022;28;20029;-82
2022/03/15 02:32:17;;;;;;;39.42;15.10;;;;;;;-1.10;54.61;95503.84;5043781;28;20032;-82
2022/03/15 02:34:42;;;;;;;43.70;16.08;;;;;;;-1.13;54.93;95504.22;5043742;28;20045;-82
2022/03/15 02:37:08;;;;;;;52.88;16.70;;;;;;;-1.11;54.88;95506.66;5044090;28;20017;-82
2022/03/15 02:39:34;;;;;;;54.20;18.50;;;;;;;-1.11;54.72;95507.47;5043929;28;20021;-83
2022/03/15 02:42:00;;;;;;;39.78;14.95;;;;;;;-1.13;54.74;95503.44;5043727;28;20017;-82
2022/03/15 02:44:25;;;;;;;41.67;14.93;;;;;;;-1.17;54.50;95512.69;5043648;28;20284;-82
2022/03/15 02:46:51;;;;;;;38.05;14.18;;;;;;;-1.21;54.58;95512.28;5043868;28;20021;-82
2022/03/15 02:49:17;;;;;;;36.78;14.45;;;;;;;-1.22;54.91;95510.69;5043594;28;20021;-82
2022/03/15 02:51:43;;;;;;;36.60;13.02;;;;;;;-1.19;55.15;95519.94;5043519;28;20025;-82
2022/03/15 02:54:11;;;;;;;34.90;14.18;;;;;;;-1.16;54.32;95525.59;5042861;28;20033;-82
2022/03/15 02:56:43;;;;;;;31.00;13.63;;;;;;;-1.18;54.71;95514.50;5043635;28;20055;-82
2022/03/15 02:59:14;;;;;;;;;;;;;;;-1.16;54.14;95525.59;5026502;28;20049;-82
2022/03/15 03:01:44;;;;;;;29.08;11.85;;;;;;;-1.21;54.22;95520.91;5025695;28;19928;-82
2022/03/15 03:04:10;;;;;;;36.08;13.27;;;;;;;-1.21;54.58;95514.88;5043332;28;20021;-82
2022/03/15 03:06:36;;;;;;;25.05;11.52;;;;;;;-1.21;54.62;95512.28;5043366;28;20335;-81
2022/03/15 03:09:02;;;;;;;30.08;12.80;;;;;;;-1.24;54.35;95508.25;5043294;28;20049;-81
2022/03/15 03:11:28;;;;;;;27.00;10.93;;;;;;;-1.23;54.09;95509.84;5043154;28;20032;-81
2022/03/15 03:13:57;;;;;;;26.50;12.57;;;;;;;-1.24;54.60;95512.69;5043234;28;20218;-81
2022/03/15 03:16:23;;;;;;;27.65;12.52;;;;;;;-1.27;54.53;95507.84;5043037;28;20029;-81
2022/03/15 03:18:49;;;;;;;28.95;12.43;;;;;;;-1.31;55.10;95517.09;5043215;28;20029;-81
2022/03/15 03:21:15;;;;;;;34.58;13.40;;;;;;;-1.35;55.31;95506.19;5042898;28;20331;-81
2022/03/15 03:23:40;;;;;;;29.90;12.60;;;;;;;-1.39;55.70;95498.97;5042933;28;20028;-81
2022/03/15 03:26:07;;;;;;;29.20;12.15;;;;;;;-1.43;55.49;95498.53;5043275;28;20138;-81
2022/03/15 03:28:36;;;;;;;33.55;13.90;;;;;;;-1.39;55.61;95504.19;5042861;28;20021;-81
2022/03/15 03:31:03;;;;;;;26.60;12.32;;;;;;;-1.40;55.34;95492.94;5042864;28;20052;-82
2022/03/15 03:33:29;;;;;;;28.88;12.55;;;;;;;-1.42;55.41;95497.56;5042730;28;20213;-82
2022/03/15 03:35:55;;;;;;;30.50;14.85;;;;;;;-1.43;55.86;95478.41;5042773;28;20052;-82
2022/03/15 03:38:20;;;;;;;35.05;14.73;;;;;;;-1.42;55.91;95479.25;5042639;28;20055;-82
2022/03/15 03:40:46;;;;;;;29.30;14.55;;;;;;;-1.43;55.42;95473.19;5042746;28;20021;-82
2022/03/15 03:43:12;;;;;;;33.05;14.07;;;;;;;-1.44;55.46;95484.66;5042785;28;20025;-81
2022/03/15 03:45:38;;;;;;;36.72;14.93;;;;;;;-1.45;55.62;95496.13;5042765;28;20096;-81
2022/03/15 03:48:07;;;;;;;31.88;15.45;;;;;;;-1.45;55.91;95490.88;5042724;28;20037;-81
2022/03/15 03:50:34;;;;;;;42.63;16.00;;;;;;;-1.43;55.74;95499.34;5042304;28;20030;-81
2022/03/15 03:53:00;;;;;;;35.15;16.27;;;;;;;-1.47;56.00;95513.00;5042519;28;20338;-81
2022/03/15 03:55:25;;;;;;;34.92;15.10;;;;;;;-1.54;55.87;95510.38;5042634;28;20029;-81
2022/03/15 03:57:51;;;;;;;30.90;14.35;;;;;;;-1.54;55.69;95512.19;5042610;28;20045;-82
2022/03/15 04:00:17;;;;;;;32.67;14.82;;;;;;;-1.56;55.56;95519.44;5024758;28;20029;-82
2022/03/15 04:02:43;;;;;;;33.58;14.52;;;;;;;-1.57;55.69;95526.47;5042570;28;20220;-82
2022/03/15 04:05:09;;;;;;;28.55;15.35;;;;;;;-1.60;55.97;95534.72;5042487;28;20028;-81
2022/03/15 04:07:35;;;;;;;39.53;16.38;;;;;;;-1.59;56.02;95543.34;5042462;28;20043;-83
2022/03/15 04:10:06;;;;;;;46.22;15.75;;;;;;;-1.61;56.62;95543.53;5042215;28;20035;-84
2022/03/15 04:12:32;;;;;;;30.00;14.98;;;;;;;-1.58;56.41;95542.38;5042299;28;20272;-83
2022/03/15 04:14:58;;;;;;;34.38;16.98;;;;;;;-1.60;56.87;95550.41;5042297;28;20029;-80
2022/03/15 04:17:24;;;;;;;42.78;18.63;;;;;;;-1.58;57.51;95537.94;5042186;28;20025;-82
2022/03/15 04:19:50;;;;;;;41.83;17.60;;;;;;;-1.60;57.70;95539.13;5042305;28;20093;-82
2022/03/15 04:22:15;;;;;;;37.15;15.48;;;;;;;-1.62;58.02;95547.97;5042373;28;20025;-82
2022/03/15 04:24:41;;;;;;;36.50;17.30;;;;;;;-1.66;58.02;95559.03;5042493;28;20025;-83
2022/03/15 04:27:06;;;;;;;38.67;16.10;;;;;;;-1.67;57.71;95546.94;5042329;28;20025;-82
2022/03/15 04:29:32;;;;;;;37.88;15.88;;;;;;;-1.70;57.89;95549.94;5042248;28;20032;-82
2022/03/15 04:31:57;;;;;;;35.20;16.90;;;;;;;-1.68;58.19;95555.78;5024596;28;20028;-82
2022/03/15 04:34:24;;;;;;;44.95;16.70;;;;;;;-1.68;57.88;95558.41;5041788;28;20107;-83
2022/03/15 04:36:49;;;;;;;41.40;17.00;;;;;;;-1.74;57.69;95554.75;5041110;28;20040;-82
2022/03/15 04:39:17;;;;;;;37.30;17.58;;;;;;;-1.74;58.00;95559.97;5042198;28;20025;-83
2022/03/15 04:41:46;;;;;;;36.83;16.30;;;;;;;-1.75;57.84;95554.94;5042278;28;20021;-84
2022/03/15 04:44:12;;;;;;;45.50;17.75;;;;;;;-1.79;57.98;95556.34;5042427;28;20053;-83
2022/03/15 04:46:38;;;;;;;35.40;15.82;;;;;;;-1.74;58.16;95556.56;5042097;28;20031;-82
2022/03/15 04:49:04;;;;;;;41.97;19.20;;;;;;;-1.72;57.77;95562.41;5042021;28;20025;-81
2022/03/15 04:51:29;;;;;;;34.10;16.95;;;;;;;-1.72;57.98;95557.19;5042060;28;20328;-81
2022/03/15 04:53:55;;;;;;;44.05;19.02;;;;;;;-1.79;58.29;95554.53;5042187;28;20052;-81
2022/03/15 04:56:21;;;;;;;37.50;17.70;;;;;;;-1.76;58.53;95563.81;5042026;28;20067;-81
2022/03/15 04:58:47;;;;;;;42.20;19.30;;;;;;;-1.78;58.86;95552.72;5041798;28;20254;-81
2022/03/15 05:01:13;;;;;;;35.53;16.98;;;;;;;-1.76;58.92;95555.97;5041825;28;20021;-82
2022/03/15 05:03:38;;;;;;;40.70;19.20;;;;;;;-1.78;58.93;95553.53;5042249;28;20227;-81
2022/03/15 05:06:04;;;;;;;43.85;19.02;;;;;;;-1.75;58.89;95547.09;5041862;28;20029;-81
2022/03/15 05:08:30;;;;;;;41.60;19.05;;;;;;;-1.73;58.53;95566.00;5041663;28;20025;-80
2022/03/15 05:11:08;;;;;;;51.50;18.75;;;;;;;-1.70;58.60;95552.56;5041816;28;20033;-82
2022/03/15 05:13:42;;;;;;;42.60;18.33;;;;;;;-1.67;58.51;95549.53;5041745;28;20039;-82
2022/03/15 05:16:14;;;;;;;50.70;21.15;;;;;;;-1.63;58.55;95561.22;5041786;28;20088;-82
2022/03/15 05:18:40;;;;;;;45.78;20.85;;;;;;;-1.62;58.05;95565.47;5044932;28;20025;-81
2022/03/15 05:21:07;;;;;;;48.05;18.00;;;;;;;-1.58;57.69;95574.53;5045343;28;20018;-81
2022/03/15 05:23:33;;;;;;;32.67;14.85;;;;;;;-1.60;57.85;95568.69;5045284;28;20029;-81
2022/03/15 05:25:58;;;;;;;28.88;13.25;;;;;;;-1.55;57.50;95573.34;5045452;28;20223;-81
2022/03/15 05:28:24;;;;;;;33.55;14.85;;;;;;;-1.49;57.36;95565.50;5044994;28;20029;-81
2022/03/15 05:30:50;;;;;;;33.83;15.00;;;;;;;-1.42;57.39;95555.88;5045247;28;20044;-82
2022/03/15 05:33:16;;;;;;;39.40;16.35;;;;;;;-1.39;57.68;95562.53;5045123;28;20049;-80
2022/03/15 05:35:42;;;;;;;34.75;16.95;;;;;;;-1.32;57.75;95567.78;5045222;28;20220;-80
2022/03/15 05:38:07;;;;;;;41.85;17.67;;;;;;;-1.30;57.75;95560.56;5044995;28;20103;-81
2022/03/15 05:40:34;;;;;;;49.67;20.20;;;;;;;-1.24;57.84;95559.78;5044742;28;20025;-81
2022/03/15 05:42:59;;;;;;;47.45;20.95;;;;;;;-1.14;57.61;95554.97;5044786;28;20028;-81
2022/03/15 05:45:25;;;;;;;47.22;19.92;;;;;;;-1.09;57.29;95562.22;5044781;28;20018;-82
2022/03/15 05:47:54;;;;;;;40.63;18.23;;;;;;;-1.06;56.80;95557.41;5027108;28;20387;-81
2022/03/15 05:50:20;;;;;;;42.78;18.88;;;;;;;-0.99;56.45;95556.59;5044733;28;20021;-81
2022/03/15 05:52:46;;;;;;;36.95;17.27;;;;;;;-0.94;56.32;95564.66;5045028;28;20336;-81
2022/03/15 05:55:11;;;;;;;37.00;15.63;;;;;;;-0.90;55.53;95558.81;5043738;28;20025;-84
2022/03/15 05:57:38;;;;;;;34.33;14.98;;;;;;;-0.85;55.43;95563.47;5044533;28;20315;-84
2022/03/15 06:00:08;;;;;;;43.85;16.67;;;;;;;-0.79;55.36;95567.91;5044691;28;20047;-83
2022/03/15 06:02:33;;;;;;;41.22;17.20;;;;;;;-0.72;55.13;95568.72;5044756;28;20291;-82
2022/03/15 06:04:59;;;;;;;45.15;17.38;;;;;;;-0.69;55.22;95565.72;5026670;28;20296;-82
2022/03/15 06:07:27;;;;;;;38.70;18.73;;;;;;;-0.65;55.21;95556.44;5026677;28;20097;-82
2022/03/15 06:09:53;;;;;;;38.55;17.58;;;;;;;-0.52;55.01;95570.53;5044433;28;20096;-82
2022/03/15 06:12:20;;;;;;;35.67;16.63;;;;;;;-0.43;54.50;95577.19;5044335;28;20030;-82
2022/03/15 06:14:53;;;;;;;43.75;18.15;;;;;;;-0.35;54.52;95584.03;5044281;28;20036;-86
2022/03/15 06:17:21;;;;;;;49.35;15.52;;;;;;;-0.22;54.27;95579.59;5044337;28;20025;-83
2022/03/15 06:19:47;;;;;;;38.90;17.80;;;;;;;-0.17;54.35;95580.81;5044123;28;20029;-81
2022/03/15 06:22:12;;;;;;;53.75;19.13;;;;;;;-0.11;54.85;95577.38;5044393;28;20051;-82
2022/03/15 06:24:37;;;;;;;54.70;21.08;;;;;;;-0.04;55.11;95581.59;5044311;28;20253;-80
2022/03/15 06:27:03;;;;;;;62.63;21.73;;;;;;;0.08;55.75;95576.53;5044391;28;20029;-86
2022/03/15 06:29:30;;;;;;;57.47;21.73;;;;;;;0.19;55.35;95568.03;5042912;28;20025;-83
2022/03/15 06:31:56;;;;;;;71.15;24.65;;;;;;;0.26;55.49;95570.63;5045213;28;20032;-80
2022/03/15 06:34:21;;;;;;;54.65;23.25;;;;;;;0.36;55.31;95575.44;5044203;28;20061;-78
2022/03/15 06:36:47;;;;;;;64.18;23.08;;;;;;;0.50;54.62;95571.75;5043764;28;20021;-80
2022/03/15 06:39:13;;;;;;;55.70;22.20;;;;;;;0.62;54.73;95585.06;5043890;28;20091;-81
2022/03/15 06:41:40;;;;;;;53.00;21.08;;;;;;;0.70;54.26;95584.81;5043684;28;20092;-80
2022/03/15 06:44:09;;;;;;;50.92;21.90;;;;;;;0.80;53.91;95592.25;5043909;28;20025;-82
2022/03/15 06:46:35;;;;;;;55.03;22.05;;;;;;;0.89;53.29;95590.97;5043642;28;20377;-81
2022/03/15 06:49:01;;;;;;;48.47;20.83;;;;;;;0.89;53.77;95590.19;5043846;28;20037;-77
2022/03/15 06:51:26;;;;;;;47.30;20.48;;;;;;;0.97;53.30;95579.44;5043525;28;20324;-77
2022/03/15 06:53:52;;;;;;;53.13;21.00;;;;;;;1.03;51.78;95578.59;5043602;28;20060;-77
2022/03/15 06:56:19;;;;;;;54.45;19.55;;;;;;;1.09;51.60;95576.94;5043581;28;20220;-76
2022/03/15 06:58:44;;;;;;;46.63;18.52;;;;;;;1.18;51.17;95581.75;5043316;28;20147;-76
2022/03/15 07:01:10;;;;;;;47.15;18.00;;;;;;;1.27;50.10;95589.38;5043442;28;20304;-77
2022/03/15 07:03:35;;;;;;;46.75;20.58;;;;;;;1.35;50.19;95579.41;5043606;28;20092;-77
2022/03/15 07:06:01;;;;;;;44.95;22.13;;;;;;;1.40;50.42;95578.75;5043334;28;20017;-77
2022/03/15 07:08:29;;;;;;;47.10;21.15;;;;;;;1.47;50.58;95579.53;5043397;28;20043;-79
2022/03/15 07:10:54;;;;;;;49.75;21.27;;;;;;;1.53;50.76;95580.50;5043142;28;20017;-78
2022/03/15 07:13:20;;;;;;;40.45;19.98;;;;;;;1.66;49.63;95596.16;5042170;28;20315;-78
2022/03/15 07:15:49;;;;;;;44.33;20.73;;;;;;;1.74;49.52;95593.25;5043192;28;20028;-78
2022/03/15 07:18:15;;;;;;;44.25;19.38;;;;;;;1.81;49.44;95590.56;5043081;28;20017;-83
2022/03/15 07:20:42;;;;;;;44.60;18.73;;;;;;;1.91;48.66;95588.25;5043090;28;20247;-74
2022/03/15 07:23:07;;;;;;;53.08;18.80;;;;;;;2.03;48.50;95600.72;5043081;28;20215;-70
2022/03/15 07:25:33;;;;;;;42.40;17.08;;;;;;;2.10;48.11;95586.47;5043079;28;20040;-72
2022/03/15 07:27:58;;;;;;;41.22;17.58;;;;;;;2.25;47.59;95588.75;5042922;28;20319;-71
2022/03/15 07:30:23;;;;;;;33.17;17.00;;;;;;;2.30;47.75;95590.72;5042701;28;20029;-71
2022/03/15 07:32:49;;;;;;;39.50;16.20;;;;;;;2.31;47.26;95582.63;5042691;28;20212;-70
2022/03/15 07:35:15;;;;;;;37.92;17.40;;;;;;;2.45;46.88;95588.56;5042929;28;20029;-71
2022/03/15 07:37:51;;;;;;;31.60;16.58;;;;;;;2.56;46.95;95594.91;5042868;28;20037;-71
2022/03/15 07:40:17;;;;;;;33.60;15.27;;;;;;;2.71;45.85;95594.56;5042320;28;20032;-70
2022/03/15 07:42:43;;;;;;;38.55;16.98;;;;;;;2.83;45.51;95594.59;5042993;28;20068;-71
2022/03/15 07:45:09;;;;;;;36.15;16.63;;;;;;;2.94;44.92;95602.56;5042873;28;20022;-72
2022/03/15 07:47:34;;;;;;;42.65;16.42;;;;;;;3.02;44.61;95593.53;5042653;28;20037;-71
2022/03/15 07:49:59;;;;;;;35.25;14.25;;;;;;;3.11;44.44;95591.41;5042733;28;20037;-72
2022/03/15 07:52:26;;;;;;;26.50;13.57;;;;;;;3.18;44.38;95595.56;5042537;28;20052;-71
2022/03/15 07:54:52;;;;;;;34.45;14.18;;;;;;;3.25;43.40;95584.13;5042808;28;20029;-70
2022/03/15 07:57:17;;;;;;;36.65;16.50;;;;;;;3.30;43.75;95577.16;5042764;28;20281;-72
2022/03/15 07:59:43;;;;;;;35.92;16.48;;;;;;;3.39;44.71;95583.69;5042887;28;20316;-71
2022/03/15 08:02:09;;;;;;;38.80;17.20;;;;;;;3.49;45.08;95585.78;5042549;28;20028;-71
2022/03/15 08:04:34;;;;;;;41.08;17.55;;;;;;;3.63;44.57;95582.97;5042714;28;20053;-72
2022/03/15 08:06:59;;;;;;;39.25;16.20;;;;;;;3.71;44.04;95580.78;5042728;28;20030;-72
2022/03/15 08:09:25;;;;;;;34.83;16.00;;;;;;;3.79;42.84;95569.91;5042745;28;20075;-71
2022/03/15 08:11:50;;;;;;;44.13;17.90;;;;;;;3.88;43.07;95565.09;5042411;28;20129;-70
2022/03/15 08:14:16;;;;;;;46.25;16.77;;;;;;;4.01;43.52;95575.44;5042488;28;20049;-70
2022/03/15 08:16:41;;;;;;;42.53;16.75;;;;;;;4.14;43.63;95584.16;5042692;28;20271;-71
2022/03/15 08:19:08;;;;;;;33.75;16.98;;;;;;;4.29;43.84;95575.75;5042389;28;20227;-70
2022/03/15 08:21:35;;;;;;;40.65;15.82;;;;;;;4.43;43.68;95572.63;5042484;28;20236;-70
2022/03/15 08:24:00;;;;;;;39.95;16.77;;;;;;;4.58;42.23;95568.69;5042420;28;20104;-70
2022/03/15 08:26:26;;;;;;;40.72;18.10;;;;;;;4.67;42.63;95571.81;5042485;28;20312;-70
2022/03/15 08:28:52;;;;;;;39.10;17.75;;;;;;;4.79;42.59;95569.94;5042245;28;20332;-69
2022/03/15 08:31:18;;;;;;;47.72;19.55;;;;;;;4.88;42.11;95565.88;5042397;28;20036;-71
2022/03/15 08:33:44;;;;;;;45.45;19.45;;;;;;;5.01;42.10;95573.53;5042200;28;20235;-71
2022/03/15 08:36:11;;;;;;;38.22;20.23;;;;;;;5.16;41.94;95564.28;5042404;28;20029;-70
2022/03/15 08:38:36;;;;;;;49.75;20.98;;;;;;;5.29;41.71;95564.00;5042395;28;20242;-71
2022/03/15 08:41:05;;;;;;;43.80;19.52;;;;;;;5.41;41.90;95556.81;5042263;28;20017;-72
2022/03/15 08:43:31;;;;;;;45.58;19.38;;;;;;;5.57;41.21;95564.97;5042259;28;20200;-72
2022/03/15 08:45:56;;;;;;;55.20;20.10;;;;;;;5.63;40.86;95548.16;5042029;28;20101;-72
2022/03/15 08:48:22;;;;;;;39.75;18.02;;;;;;;5.68;40.88;95542.97;5042021;28;20021;-73
2022/03/15 08:50:49;;;;;;;42.50;17.90;;;;;;;5.82;40.55;95543.41;5042165;28;20057;-74
2022/03/15 08:53:17;;;;;;;41.83;17.45;;;;;;;5.98;40.00;95544.47;5044940;28;20342;-73
2022/03/15 08:55:42;;;;;;;37.17;17.08;;;;;;;6.11;38.75;95535.41;5028111;28;20052;-74
2022/03/15 08:58:08;;;;;;;41.65;22.55;;;;;;;6.19;37.97;95545.59;5045605;28;20021;-74
2022/03/15 09:00:33;;;;;;;45.47;22.60;;;;;;;6.17;38.17;95539.75;5045575;28;20048;-75
2022/03/15 09:02:59;;;;;;;50.28;17.20;;;;;;;6.16;38.00;95535.47;5045499;28;20025;-74
2022/03/15 09:05:26;;;;;;;31.05;15.40;;;;;;;6.18;37.85;95536.81;5045520;28;20028;-75
2022/03/15 09:07:52;;;;;;;36.13;16.83;;;;;;;6.26;37.84;95530.31;5045638;28;20083;-75
2022/03/15 09:10:21;;;;;;;36.05;16.38;;;;;;;6.32;37.39;95526.69;5045389;28;20307;-75
2022/03/15 09:12:48;;;;;;;36.40;15.73;;;;;;;6.36;37.93;95517.22;5045691;28;20037;-74
2022/03/15 09:15:15;;;;;;;42.50;17.02;;;;;;;6.42;37.64;95518.06;5045620;28;20042;-74
2022/03/15 09:17:41;;;;;;;43.25;17.85;;;;;;;6.44;37.19;95513.34;5027916;28;20107;-74
2022/03/15 09:20:08;;;;;;;36.50;16.17;;;;;;;6.47;36.98;95520.78;5045509;28;20013;-74
2022/03/15 09:22:34;;;;;;;37.08;17.75;;;;;;;6.51;37.37;95510.50;5045085;28;20071;-74
2022/03/15 09:25:00;;;;;;;48.97;17.77;;;;;;;6.53;37.03;95511.84;5045476;28;20057;-74
2022/03/15 09:27:25;;;;;;;40.10;17.90;;;;;;;6.63;36.75;95509.34;5045522;28;20028;-74
2022/03/15 09:29:51;;;;;;;44.10;16.83;;;;;;;6.71;36.69;95509.94;5045365;28;20060;-74
2022/03/15 09:32:16;;;;;;;36.42;15.15;;;;;;;6.77;36.24;95506.28;5045133;28;20034;-73
2022/03/15 09:34:43;;;;;;;40.67;16.92;;;;;;;6.74;36.09;95506.81;5045146;28;20048;-73
2022/03/15 09:37:09;;;;;;;32.13;16.45;;;;;;;6.75;35.88;95498.59;5045329;28;20029;-72
2022/03/15 09:39:34;;;;;;;39.80;17.98;;;;;;;6.75;36.19;95495.16;5045177;28;20085;-73
2022/03/15 09:42:05;;;;;;;39.38;16.45;;;;;;;6.87;36.57;95498.47;5045371;28;20018;-72
2022/03/15 09:44:31;;;;;;;39.88;16.73;;;;;;;6.95;35.97;95495.34;5045049;28;20048;-72
2022/03/15 09:47:02;;;;;;;30.00;16.05;;;;;;;6.97;35.15;95498.56;5044996;28;20074;-72
2022/03/15 09:49:29;;;;;;;42.30;17.67;;;;;;;6.89;35.38;95506.16;5045092;28;20025;-72
2022/03/15 09:51:55;;;;;;;33.47;15.82;;;;;;;6.89;35.26;95500.88;5044678;28;20017;-72
2022/03/15 09:54:22;;;;;;;36.13;17.55;;;;;;;6.91;35.06;95490.81;5044852;28;20021;-72
2022/03/15 09:56:48;;;;;;;37.58;18.27;;;;;;;6.86;35.40;95480.97;5044899;28;20036;-72
2022/03/15 09:59:19;;;;;;;32.92;17.40;;;;;;;6.86;36.00;95483.63;5044818;28;20220;-72
2022/03/15 10:01:52;;;;;;;39.25;16.55;;;;;;;6.87;35.87;95479.09;5044863;28;20329;-72
2022/03/15 10:04:19;;;;;;;35.42;16.05;;;;;;;7.00;34.67;95482.16;5044668;28;20071;-72
2022/03/15 10:06:45;;;;;;;33.55;16.52;;;;;;;7.00;34.32;95473.41;5045981;28;20025;-72
2022/03/15 10:09:11;;;;;;;41.00;17.80;;;;;;;7.10;34.84;95468.19;5044975;28;20056;-72
2022/03/15 10:11:37;;;;;;;42.40;18.10;;;;;;;7.14;34.11;95463.19;5044402;28;20025;-72
2022/03/15 10:14:04;;;;;;;38.45;16.17;;;;;;;7.18;34.57;95459.78;5044463;28;20029;-72
2022/03/15 10:16:32;;;;;;;39.95;17.45;;;;;;;7.20;33.63;95459.53;5044740;28;20092;-72
2022/03/15 10:18:58;;;;;;;46.80;18.85;;;;;;;7.30;34.25;95453.50;5044425;28;20025;-73
2022/03/15 10:21:44;;;;;;;37.65;17.17;;;;;;;7.38;33.38;95459.16;5044497;28;20021;-72
2022/03/15 10:24:10;;;;;;;41.33;18.35;;;;;;;7.42;33.19;95457.59;5043594;28;20037;-72
2022/03/15 10:26:38;;;;;;;34.28;16.33;;;;;;;7.50;33.21;95450.22;5044334;28;20066;-72
2022/03/15 10:29:04;;;;;;;40.33;18.95;;;;;;;7.55;34.02;95448.41;5044101;28;20075;-72
2022/03/15 10:31:30;;;;;;;42.42;18.80;;;;;;;7.72;33.17;95448.25;5044275;28;20040;-72
2022/03/15 10:34:00;;;;;;;46.58;18.17;;;;;;;7.82;32.19;95435.06;5043995;28;20388;-72
2022/03/15 10:36:27;;;;;;;45.00;16.33;;;;;;;7.94;31.99;95436.72;5043945;28;20083;-72
2022/03/15 10:38:53;;;;;;;48.53;16.33;;;;;;;8.01;31.50;95418.69;5043792;28;20025;-73
2022/03/15 10:41:20;;;;;;;41.40;16.73;;;;;;;8.16;31.21;95424.06;5044065;28;20017;-74
2022/03/15 10:43:53;;;;;;;42.90;15.73;;;;;;;8.31;30.68;95420.69;5044094;28;20047;-73
2022/03/15 10:46:22;;;;;;;29.80;14.13;;;;;;;8.43;29.36;95405.34;5043647;28;20028;-73
2022/03/15 10:49:24;;;;;;;27.40;13.30;;;;;;;8.59;28.97;95395.56;5043774;28;20029;-74
2022/03/15 10:51:49;;;;;;;35.47;12.25;;;;;;;8.75;27.02;95392.91;4982898;28;20027;-74
2022/03/15 10:54:15;;;;;;;24.23;11.45;;;;;;;8.77;26.93;95401.41;5031152;28;20124;-74
2022/03/15 10:56:41;;;;;;;28.90;10.45;;;;;;;8.93;25.36;95395.06;5043913;28;20025;-74
2022/03/15 10:59:09;;;;;;;19.10;9.85;;;;;;;9.03;25.03;95389.75;5025744;28;20079;-73
2022/03/15 11:01:39;;;;;;;26.35;10.10;;;;;;;9.23;25.35;95393.50;5043442;28;20021;-74
2022/03/15 11:04:08;;;;;;;30.27;8.85;;;;;;;9.24;24.63;95385.25;5043508;28;20041;-74
2022/03/15 11:06:40;;;;;;;16.55;8.90;;;;;;;9.51;23.55;95389.47;5043206;28;20025;-74
2022/03/15 11:09:19;;;;;;;20.23;9.05;;;;;;;9.60;22.68;95379.88;5043465;28;20286;-74
2022/03/15 11:11:47;;;;;;;27.45;8.35;;;;;;;9.70;22.78;95376.38;5043299;28;20033;-74
2022/03/15 11:14:13;;;;;;;17.95;9.10;;;;;;;9.83;22.08;95373.19;5043202;28;20037;-74
2022/03/15 11:16:41;;;;;;;26.25;9.13;;;;;;;9.86;23.82;95358.50;5042975;28;20075;-73
2022/03/15 11:19:11;;;;;;;39.50;10.85;;;;;;;10.02;23.80;95361.94;5043309;28;20382;-73